M I D A S
Marine Information and Data Acquisition System
Tripno 257 of the Zeeleeuw from 2001-12-07 06:15:00 to 2001-12-07 16:30:00
Back to CruiseResearch ActivitiesStationsMapUnderway DataData graphs

EquipmentUnitsComments
TimeDGPSUTC
LatitudeDGPSDM.mWGS84
LongitudeDGPSDM.mWGS84
SpeedMeteo Stationm/sRelative wind speed
DirectionMeteo StationdegRelative wind direction
TemperatureMeteo Stationdeg CelciusAir temperature
PressureMeteo StationPaAtmospheric pressure
HumidityMeteo Station%Relative humidity
Missing or incorrect values are displayed as -999
Metereological data collected by the RV Zeeleeuw from 2001-12-07 06:15:00 to 2001-12-07 16:30:00
Time Latitude Longitude Speed Direction Temperature Pressure Humidity
2001-12-07 08:31 51°15.808 2°54.434 3.2 320 4.5 103790 90
2001-12-07 08:33 51°16.038 2°54.351 3.9 303 4.5 103790 90
2001-12-07 08:34 51°16.212 2°54.321 2.2 233 4.6 103780 90
2001-12-07 08:34 51°16.262 2°54.318 3.6 206 4.7 103780 90
2001-12-07 08:36 51°16.263 2°54.302 3.6 198 4.8 103780 90
2001-12-07 08:36 51°16.283 2°54.291 4.5 179 4.9 103790 90
2001-12-07 08:37 51°16.287 2°54.282 4.2 180 4.9 103790 90
2001-12-07 08:38 51°16.295 2°54.27 4.2 176 4.9 103790 89
2001-12-07 08:39 51°16.306 2°54.257 4 182 4.9 103790 89
2001-12-07 08:40 51°16.318 2°54.244 4.4 192 4.9 103790 89
2001-12-07 08:41 51°16.332 2°54.235 3.8 198 4.9 103790 88
2001-12-07 08:42 51°16.345 2°54.227 3.9 207 4.8 103780 88
2001-12-07 08:43 51°16.357 2°54.221 4 205 4.8 103790 88
2001-12-07 08:45 51°16.369 2°54.217 4 229 5 103790 89
2001-12-07 08:46 51°16.379 2°54.213 4.1 226 5 103780 89
2001-12-07 08:47 51°16.389 2°54.21 3.8 239 5 103790 88
2001-12-07 08:48 51°16.397 2°54.207 4.4 232 5.2 103790 89
2001-12-07 08:49 51°16.406 2°54.204 4.3 239 5.2 103790 88
2001-12-07 08:50 51°16.415 2°54.201 3.8 230 5.1 103790 88
2001-12-07 08:51 51°16.438 2°54.207 3.4 209 5.1 103790 88
2001-12-07 08:52 51°16.497 2°54.138 0.6 83 5.1 103790 88
2001-12-07 08:53 51°16.572 2°53.947 0.6 219 5.1 103790 88
2001-12-07 08:54 51°16.665 2°53.741 0.6 27 5.2 103800 88
2001-12-07 08:55 51°16.758 2°53.526 0.8 63 5.4 103800 88
2001-12-07 08:56 51°16.854 2°53.318 0.9 240 5.3 103800 88
2001-12-07 08:57 51°16.945 2°53.107 1.1 115 5.5 103800 88
2001-12-07 08:58 51°17.045 2°52.906 0.5 34 5.5 103810 88
2001-12-07 08:59 51°17.146 2°52.699 0.6 17 5.6 103800 88
2001-12-07 09:00 51°17.252 2°52.509 0.6 46 5.7 103800 88
2001-12-07 09:01 51°17.375 2°52.336   341 6 103800 89
2001-12-07 09:02 51°17.504 2°52.175 0.1 40 6.1 103810 89
2001-12-07 09:03 51°17.628 2°52.008 0.8 317 6.1 103810 88
2001-12-07 09:04 51°17.759 2°51.854 0.6 342 6.2 103810 88
2001-12-07 09:05 51°17.877 2°51.711 0.3 89 6.3 103810 88
2001-12-07 09:06 51°17.989 2°51.58 0.7 181 6.5 103810 88
2001-12-07 09:07 51°18.099 2°51.458 1.2 146 6.6 103800 88
2001-12-07 09:08 51°18.2 2°51.321 1.5 123 6.6 103810 87
2001-12-07 09:09 51°18.308 2°51.187 1.6 173 6.5 103800 86
2001-12-07 09:10 51°18.418 2°51.079 2.4 155 6.4 103800 85
2001-12-07 09:11 51°18.467 2°51.026 4.3 193 6.4 103800 85
2001-12-07 09:12 51°18.498 2°51.035 5.6 256 6.4 103800 84
2001-12-07 09:13 51°18.514 2°51.038 4.3 255 6.4 103790 84
2001-12-07 09:14 51°18.513 2°51.083 5.8 319 6.4 103790 83
2001-12-07 09:15 51°18.521 2°51.072 4.2 301 6.3 103800 83
2001-12-07 09:16 51°18.529 2°51.062 5 295 6.3 103800 83
2001-12-07 09:17 51°18.537 2°51.057 5.1 294 6.3 103800 82
2001-12-07 09:18 51°18.54 2°51.062 6.2 321 6.3 103800 83
2001-12-07 09:19 51°18.538 2°51.067 5.6 336 6.2 103810 82
2001-12-07 09:20 51°18.528 2°51.069 7.1 342 6.4 103810 83
2001-12-07 09:21 51°18.513 2°51.069 7.2 346 6.4 103810 82
2001-12-07 09:22 51°18.496 2°51.071 6.4 343 6.3 103810 82
2001-12-07 09:23 51°18.482 2°51.069 6.7 336 6.4 103810 82
2001-12-07 09:24 51°18.474 2°51.063 6.7 340 6.4 103810 83
2001-12-07 09:25 51°18.467 2°51.053 5.3 354 6.4 103810 82
2001-12-07 09:26 51°18.467 2°51.036 5.8 352 6.5 103810 83
2001-12-07 09:27 51°18.463 2°51.019 5.9 346 6.5 103800 83
2001-12-07 09:28 51°18.456 2°51.006 6.1 335 6.5 103800 83
2001-12-07 09:29 51°18.451 2°50.996 5.2 331 6.5 103810 82
2001-12-07 09:30 51°18.447 2°50.989 5 315 6.6 103810 82
2001-12-07 09:31 51°18.446 2°50.985 5.1 304 6.5 103810 82
2001-12-07 09:32 51°18.447 2°50.983 4.9 297 6.5 103810 82
2001-12-07 09:33 51°18.449 2°50.982 4.2 314 6.5 103820 83
2001-12-07 09:34 51°18.45 2°50.983 4.2 300 6.5 103810 82
2001-12-07 09:35 51°18.45 2°50.982 5 318 6.5 103820 83
2001-12-07 09:36 51°18.448 2°50.98 4.9 318 6.5 103820 83
2001-12-07 09:37 51°18.446 2°50.975 5.4 332 6.5 103820 83
2001-12-07 09:38 51°18.442 2°50.971 5.3 332 6.6 103830 83
2001-12-07 09:39 51°18.432 2°51.026 4.7 270 6.6 103820 82
2001-12-07 09:40 51°18.505 2°51.054 1.3 146 6.5 103830 83
2001-12-07 09:41 51°18.561 2°50.849 3.3 357 6.6 103840 84
2001-12-07 09:42 51°18.595 2°50.581 3.2 26 6.6 103830 83
2001-12-07 09:43 51°18.637 2°50.31 2.8 263 6.7 103840 83
2001-12-07 09:44 51°18.678 2°50.039 2.9 125 6.7 103830 83
2001-12-07 09:45 51°18.72 2°49.769 3.6 358 6.8 103830 83
2001-12-07 09:46 51°18.763 2°49.498 4.1 260 6.8 103840 82
2001-12-07 09:47 51°18.807 2°49.225 3.5 292 6.8 103840 81
2001-12-07 09:48 51°18.85 2°48.954 2.3 9 6.8 103830 82
2001-12-07 09:49 51°18.894 2°48.687 3.6 307 6.9 103830 82
2001-12-07 09:50 51°18.937 2°48.418 4.5 320 6.9 103840 82
2001-12-07 09:51 51°18.978 2°48.142 3.8 316 6.9 103830 81
2001-12-07 09:52 51°19.015 2°47.874 2.7 80 6.9 103840 81
2001-12-07 09:53 51°19.054 2°47.594 3.9 100 7 103840 81
2001-12-07 09:54 51°19.093 2°47.327 4.4 99 7 103840 81
2001-12-07 09:55 51°19.133 2°47.048 3.5 303 7 103840 81
2001-12-07 09:56 51°19.175 2°46.779 4.1 139 7.1 103830 81
2001-12-07 09:57 51°19.218 2°46.505 2.5 208 7.1 103840 80
2001-12-07 09:58 51°19.263 2°46.23 3.5 323 7 103830 80
2001-12-07 09:59 51°19.307 2°45.955 2.5 120 7.1 103840 80
2001-12-07 10:00 51°19.353 2°45.676 1.4 170 7.1 103830 81
2001-12-07 10:01 51°19.396 2°45.407 1.8 290 7.1 103840 81
2001-12-07 10:02 51°19.441 2°45.131 2.9 271 7.1 103850 81
2001-12-07 10:03 51°19.485 2°44.852 2.3 318 7.1 103840 81
2001-12-07 10:04 51°19.528 2°44.572 1.4 236 7.1 103850 81
2001-12-07 10:05 51°19.57 2°44.298 2 209 7.1 103840 81
2001-12-07 10:06 51°19.612 2°44.021 2.7 353 7.1 103850 81
2001-12-07 10:07 51°19.656 2°43.742 2.4 146 7.2 103850 81
2001-12-07 10:08 51°19.7 2°43.467 2.9 2 7.1 103850 80
2001-12-07 10:09 51°19.745 2°43.188 2.5 116 7.1 103850 80
2001-12-07 10:10 51°19.792 2°42.911 1.3 296 7.2 103850 80
2001-12-07 10:11 51°19.842 2°42.635 2.2 267 7.2 103850 81
2001-12-07 10:12 51°19.888 2°42.373 1.5 81 7.2 103850 81
2001-12-07 10:13 51°19.923 2°42.151 0.8 198 7.2 103850 79
2001-12-07 10:14 51°19.944 2°42.008 2.3 131 7.3 103850 81
2001-12-07 10:15 51°19.954 2°41.977 3.2 196 7.2 103860 80
2001-12-07 10:16 51°19.977 2°41.955 4.9 213 7.3 103850 79
2001-12-07 10:17 51°19.982 2°41.931 4.1 235 7.2 103850 78
2001-12-07 10:18 51°20.001 2°41.936 5 240 7.1 103850 79
2001-12-07 10:19 51°20.008 2°41.924 4.3 263 7.3 103840 80
2001-12-07 10:20 51°20.015 2°41.913 4.3 268 7.3 103840 81
2001-12-07 10:21 51°20.023 2°41.907 4.3 267 7.3 103840 80
2001-12-07 10:22 51°20.031 2°41.905 4.2 273 7.1 103840 77
2001-12-07 10:23 51°20.037 2°41.907 3.4 272 7.1 103840 79
2001-12-07 10:24 51°20.044 2°41.912 4.7 272 7.2 103840 79
2001-12-07 10:25 51°20.051 2°41.923 4.5 289 7.2 103840 79
2001-12-07 10:26 51°20.048 2°41.957 6.4 316 7.2 103840 79
2001-12-07 10:27 51°20.012 2°42.007 7.2 340 7.1 103840 78
2001-12-07 10:28 51°19.967 2°42.042 5.5 346 7.3 103850 79
2001-12-07 10:29 51°19.956 2°42.031 6 357 7.3 103840 79
2001-12-07 10:30 51°19.946 2°42.014 7.1 6 7.3 103840 78
2001-12-07 10:31 51°19.939 2°41.993 6.5 23 7.3 103840 78
2001-12-07 10:32 51°19.934 2°41.966 5.6 36 7.3 103850 79
2001-12-07 10:33 51°19.925 2°41.934 5.9 28 7.5 103840 80
2001-12-07 10:34 51°19.81 2°41.838 12.3 15 7.4 103830 78
2001-12-07 10:35 51°19.652 2°41.73 12.5 5 7.4 103820 79
2001-12-07 10:36 51°19.464 2°41.655 13.6 356 7.3 103820 78
2001-12-07 10:37 51°19.241 2°41.581 14.5 2 7.3 103820 79
2001-12-07 10:38 51°19.023 2°41.496 14.3 2 7.3 103820 79
2001-12-07 10:39 51°18.807 2°41.396 15.1 1 7.3 103810 79
2001-12-07 10:40 51°18.586 2°41.296 13.5 358 7.3 103810 77
2001-12-07 10:41 51°18.363 2°41.196 14.4 360 7.3 103820 77
2001-12-07 10:42 51°18.142 2°41.097 14.7 359 7.3 103810 77
2001-12-07 10:43 51°17.924 2°41.001 14.9 2 7.3 103810 77
2001-12-07 10:44 51°17.7 2°40.904 15.7 2 7.3 103810 76
2001-12-07 10:45 51°17.474 2°40.808 14.7   7.3 103810 77
2001-12-07 10:46 51°17.254 2°40.712 16.1 4 7.3 103800 76
2001-12-07 10:47 51°17.027 2°40.617 14.4 2 7.4 103810 76
2001-12-07 10:48 51°16.802 2°40.529 15 11 7.4 103800 77
2001-12-07 10:49 51°16.578 2°40.439 15.8 5 7.4 103790 77
2001-12-07 10:50 51°16.353 2°40.351 15.2 7 7.3 103810 75
2001-12-07 10:51 51°16.136 2°40.268 13.3 360 7.2 103800 75
2001-12-07 10:52 51°15.905 2°40.178 14.3 9 7.2 103800 76
2001-12-07 10:53 51°15.71 2°40.102 12.4 13 7.2 103800 77
2001-12-07 10:54 51°15.657 2°40.087 6.2 342 7.1 103830 77
2001-12-07 10:55 51°15.654 2°40.064 6.3 333 7.1 103830 77
2001-12-07 10:56 51°15.648 2°40.055 5.5 294 7.1 103830 76
2001-12-07 10:57 51°15.649 2°40.059 5.4 259 7 103830 77
2001-12-07 10:58 51°15.663 2°40.067 4.5 233 7 103830 78
2001-12-07 10:59 51°15.687 2°40.074 4.9 227 7 103830 78
2001-12-07 11:00 51°15.709 2°40.079 4.4 231 7 103840 77
2001-12-07 11:01 51°15.724 2°40.077 4.4 236 7.1 103840 79
2001-12-07 11:02 51°15.735 2°40.072 4.2 234 7.1 103830 78
2001-12-07 11:03 51°15.744 2°40.065 4.8 249 7.2 103840 80
2001-12-07 11:04 51°15.752 2°40.056 5.1 259 7.2 103830 79
2001-12-07 11:05 51°15.758 2°40.044 4.4 255 7.1 103830 77
2001-12-07 11:06 51°15.764 2°40.03 5.2 255 7 103830 77
2001-12-07 11:07 51°15.781 2°40.046 6.2 259 7 103830 76
2001-12-07 11:08 51°15.831 2°40.083 4 220 7 103830 76
2001-12-07 11:09 51°15.886 2°40.075 3 195 7 103840 77
2001-12-07 11:10 51°15.938 2°40.028 2.8 179 7 103840 77
2001-12-07 11:11 51°15.986 2°39.96 3 152 7.1 103840 77
2001-12-07 11:12 51°16.033 2°39.88 3.7 133 7.3 103840 75
2001-12-07 11:13 51°16.079 2°39.786 2.3 125 7.2 103840 74
2001-12-07 11:14 51°16.119 2°39.685 2.3 116 7.2 103840 75
2001-12-07 11:15 51°16.157 2°39.581 2.9 113 7.2 103840 74
2001-12-07 11:16 51°16.199 2°39.486 3.2 143 7.2 103840 74
2001-12-07 11:17 51°16.251 2°39.404 2.6 160 7.2 103830 74
2001-12-07 11:18 51°16.305 2°39.332 2.6 165 7.4 103840 75
2001-12-07 11:19 51°16.355 2°39.249 3.5 136 7.6 103830 73
2001-12-07 11:20 51°16.4 2°39.155 2.7 124 7.5 103830 71
2001-12-07 11:21 51°16.441 2°39.05 2.1 123 7.5 103840 72
2001-12-07 11:22 51°16.48 2°38.94 2 126 7.5 103830 72
2001-12-07 11:23 51°16.523 2°38.831 3.1 123 7.4 103840 72
2001-12-07 11:24 51°16.574 2°38.725 1.8 120 7.4 103830 73
2001-12-07 11:25 51°16.635 2°38.609 1.3 131 7.4 103830 72
2001-12-07 11:26 51°16.702 2°38.484 1.3 118 7.5 103840 72
2001-12-07 11:27 51°16.771 2°38.357 1.9 125 7.6 103830 74
2001-12-07 11:28 51°16.815 2°38.204 0.6 129 7.6 103830 73
2001-12-07 11:29 51°16.809 2°38.048 1.9 232 7.6 103830 73
2001-12-07 11:30 51°16.787 2°37.894 4.2 273 7.7 103830 74
2001-12-07 11:31 51°16.75 2°37.749 5.3 339 7.7 103830 72
2001-12-07 11:32 51°16.711 2°37.592 4.1 260 7.6 103820 72
2001-12-07 11:33 51°16.682 2°37.436 4.5 99 7.7 103820 73
2001-12-07 11:34 51°16.653 2°37.276 5.2 256 7.7 103820 73
2001-12-07 11:35 51°16.633 2°37.117 1.4 195 7.7 103820 72
2001-12-07 11:36 51°16.609 2°37.004 3.5 322 7.8 103820 73
2001-12-07 11:37 51°16.582 2°36.922 4.5 288 7.8 103820 72
2001-12-07 11:38 51°16.56 2°36.854 3.8 328 7.8 103820 72
2001-12-07 11:39 51°16.54 2°36.795 4.1 294 7.9 103820 74
2001-12-07 11:40 51°16.52 2°36.732 2.5 184 7.8 103820 72
2001-12-07 11:41 51°16.506 2°36.651 3.3 106 7.8 103830 71
2001-12-07 11:42 51°16.522 2°36.568 4 153 7.7 103830 69
2001-12-07 11:43 51°16.568 2°36.556 4.8 258 7.7 103820 71
2001-12-07 11:44 51°16.595 2°36.671 5.3 282 7.6 103810 70
2001-12-07 11:45 51°16.608 2°36.774 4.2 283 7.6 103810 72
2001-12-07 11:46 51°16.607 2°36.774 4.5 239 7.6 103810 74
2001-12-07 11:47 51°16.611 2°36.765 4 233 7.6 103820 72
2001-12-07 11:48 51°16.617 2°36.758 4.3 236 7.6 103810 72
2001-12-07 11:49 51°16.624 2°36.757 4.7 241 7.6 103810 70
2001-12-07 11:50 51°16.63 2°36.764 4.9 248 7.5 103820 71
2001-12-07 11:51 51°16.637 2°36.778 4.3 244 7.6 103810 72
2001-12-07 11:52 51°16.643 2°36.787 4.9 237 7.7 103810 72
2001-12-07 11:53 51°16.646 2°36.787 4.3 242 7.6 103810 70
2001-12-07 11:54 51°16.646 2°36.783 4.8 259 7.7 103810 72
2001-12-07 11:55 51°16.644 2°36.774 5 261 7.6 103810 71
2001-12-07 11:56 51°16.62 2°36.809 8.5 350 7.7 103800 73
2001-12-07 11:57 51°16.482 2°36.75 13.4 360 7.6 103790 71
2001-12-07 11:58 51°16.295 2°36.554 13.7 6 7.7 103780 71
2001-12-07 11:59 51°16.111 2°36.297 13.8 12 7.8 103780 69
2001-12-07 12:00 51°15.933 2°36.037 14.2 12 7.9 103770 70
2001-12-07 12:01 51°15.752 2°35.78 14.6 11 7.8 103770 69
2001-12-07 12:02 51°15.572 2°35.522 13.5 16 7.9 103770 70
2001-12-07 12:03 51°15.391 2°35.263 14.2 15 7.8 103770 70
2001-12-07 12:04 51°15.21 2°35.005 14.8 16 7.8 103770 70
2001-12-07 12:05 51°15.031 2°34.747 12.8 21 7.8 103770 70
2001-12-07 12:06 51°14.853 2°34.487 13.1 6 7.8 103770 70
2001-12-07 12:07 51°14.675 2°34.224 12.6 8 7.8 103770 71
2001-12-07 12:08 51°14.499 2°33.954 11.6 4 7.8 103770 71
2001-12-07 12:09 51°14.323 2°33.686 13.2 11 7.8 103770 72
2001-12-07 12:10 51°14.146 2°33.416 13.7 7 7.8 103770 70
2001-12-07 12:11 51°13.969 2°33.146 13.6 10 7.7 103770 71
2001-12-07 12:12 51°13.791 2°32.876 13.5 7 7.7 103770 72
2001-12-07 12:13 51°13.613 2°32.605 12.5 5 7.7 103770 72
2001-12-07 12:14 51°13.435 2°32.334 12.9 13 7.7 103770 73
2001-12-07 12:15 51°13.257 2°32.063 11.9 3 7.7 103770 72
2001-12-07 12:16 51°13.08 2°31.79 13.3 9 7.7 103770 72
2001-12-07 12:17 51°12.903 2°31.517 13.1 11 7.7 103770 73
2001-12-07 12:18 51°12.726 2°31.244 13.4 12 7.8 103760 72
2001-12-07 12:19 51°12.549 2°30.972 13.5 18 7.7 103760 71
2001-12-07 12:20 51°12.372 2°30.698 13.7 19 7.7 103760 71
2001-12-07 12:21 51°12.194 2°30.424 12.9 13 7.7 103760 70
2001-12-07 12:22 51°12.017 2°30.149 13.4 12 7.7 103760 72
2001-12-07 12:23 51°11.84 2°29.873 12.3 12 7.7 103760 72
2001-12-07 12:24 51°11.664 2°29.594 14 25 7.7 103760 73
2001-12-07 12:25 51°11.498 2°29.312 12.3 15 7.7 103760 72
2001-12-07 12:26 51°11.321 2°29.027 13.3 18 7.7 103760 73
2001-12-07 12:27 51°11.149 2°28.746 14 18 7.7 103750 72
2001-12-07 12:28 51°11.004 2°28.506 7.3 36 7.7 103760 72
2001-12-07 12:29 51°10.967 2°28.391 0.9 115 7.7 103780 71
2001-12-07 12:30 51°11.023 2°28.347 3.9 265 7.7 103790 72
2001-12-07 12:31 51°11.038 2°28.533 8.2 327 7.6 103770 71
2001-12-07 12:32 51°11.011 2°28.603 4.4 255 7.5 103780 71
2001-12-07 12:33 51°11.015 2°28.605 3.5 237 7.4 103780 72
2001-12-07 12:34 51°11.024 2°28.622 3.6 230 7.5 103790 72
2001-12-07 12:35 51°11.031 2°28.645 4.2 248 7.6 103790 73
2001-12-07 12:36 51°11.034 2°28.672 3.8 251 7.6 103780 72
2001-12-07 12:37 51°11.04 2°28.698 3.5 251 7.6 103780 73
2001-12-07 12:38 51°11.048 2°28.725 4.1 249 7.7 103780 73
2001-12-07 12:39 51°11.053 2°28.757 4.5 259 7.6 103780 71
2001-12-07 12:40 51°11.053 2°28.793 3.5 267 7.6 103780 71
2001-12-07 12:41 51°11.053 2°28.829 2.9 274 7.7 103780 73
2001-12-07 12:42 51°11.056 2°28.864 3.4 275 7.7 103780 72
2001-12-07 12:43 51°11.063 2°28.892 3 235 7.6 103790 72
2001-12-07 12:44 51°11.079 2°28.909 3.6 216 7.6 103780 72
2001-12-07 12:45 51°11.099 2°28.914 3.5 210 7.7 103780 70
2001-12-07 12:46 51°11.119 2°28.923 3.5 217 7.7 103780 70
2001-12-07 12:47 51°11.128 2°28.935 3.5 234 7.8 103780 71
2001-12-07 12:48 51°11.131 2°28.944 3.3 241 7.8 103780 72
2001-12-07 12:49 51°11.131 2°28.95 3.7 249 8 103790 73
2001-12-07 12:50 51°11.129 2°28.951 3.9 244 8 103780 73
2001-12-07 12:51 51°11.125 2°28.95 3.5 261 7.9 103780 72
2001-12-07 12:52 51°11.121 2°28.945 4.4 260 7.8 103780 71
2001-12-07 12:53 51°11.119 2°28.957 4.5 291 7.8 103780 71
2001-12-07 12:54 51°11.18 2°29.148 6.6 307 7.8 103770 71
2001-12-07 12:55 51°11.287 2°29.417 7.9 323 7.7 103780 72
2001-12-07 12:56 51°11.389 2°29.704 8.6 316 7.6 103770 71
2001-12-07 12:57 51°11.491 2°30 7.7 309 7.6 103770 72
2001-12-07 12:58 51°11.591 2°30.289 8.6 321 7.6 103770 72
2001-12-07 12:59 51°11.688 2°30.578 8.1 306 7.6 103770 71
2001-12-07 13:00 51°11.787 2°30.867 8.9 321 7.6 103770 71
2001-12-07 13:01 51°11.885 2°31.157 7.6 309 7.6 103770 70
2001-12-07 13:02 51°11.985 2°31.448 7.4 313 7.7 103770 72
2001-12-07 13:03 51°12.081 2°31.733 8.3 315 7.8 103770 73
2001-12-07 13:04 51°12.18 2°32.024 8.8 319 7.7 103760 71
2001-12-07 13:05 51°12.279 2°32.317 8.6 315 7.7 103770 71
2001-12-07 13:06 51°12.38 2°32.61 8.4 318 7.7 103770 70
2001-12-07 13:07 51°12.473 2°32.914 8.7 317 7.7 103770 70
2001-12-07 13:08 51°12.562 2°33.214 8.4 318 7.7 103770 71
2001-12-07 13:09 51°12.654 2°33.514 8.3 311 7.7 103770 71
2001-12-07 13:10 51°12.745 2°33.816 8.8 318 7.7 103770 70
2001-12-07 13:11 51°12.834 2°34.11 8.2 321 7.7 103760 71
2001-12-07 13:12 51°12.926 2°34.414 8.6 330 7.8 103760 71
2001-12-07 13:13 51°13 2°34.72 8.6 325 7.8 103760 71
2001-12-07 13:14 51°13.078 2°35.036 8.9 322 7.8 103760 70
2001-12-07 13:15 51°13.157 2°35.345 8.6 320 7.8 103760 71
2001-12-07 13:16 51°13.236 2°35.654 8.5 323 7.8 103770 71
2001-12-07 13:17 51°13.318 2°35.962 9.5 335 7.9 103770 72
2001-12-07 13:18 51°13.412 2°36.254 8.1 322 7.9 103760 71
2001-12-07 13:19 51°13.496 2°36.563 8.7 321 7.9 103750 70
2001-12-07 13:20 51°13.551 2°36.884 9.8 338 7.9 103760 72
2001-12-07 13:21 51°13.523 2°37.201 11.5 345 8 103750 71
2001-12-07 13:22 51°13.406 2°37.475 11.3 343 8 103750 70
2001-12-07 13:23 51°13.265 2°37.758 12.8 344 8 103750 69
2001-12-07 13:24 51°13.05 2°37.805 11.2 4 8.1 103740 68
2001-12-07 13:25 51°12.829 2°37.668 11.5 2 8.1 103740 69
2001-12-07 13:26 51°12.602 2°37.562 12.4 359 8.1 103740 69
2001-12-07 13:27 51°12.373 2°37.459 13.1 3 8.2 103740 69
2001-12-07 13:28 51°12.159 2°37.29 11.4 5 8.2 103740 69
2001-12-07 13:29 51°11.933 2°37.178 11.5 8 8.2 103730 69
2001-12-07 13:30 51°11.705 2°37.063 11 8 8.2 103730 69
2001-12-07 13:31 51°11.476 2°36.95 11.9 356 8.3 103730 69
2001-12-07 13:32 51°11.245 2°36.853 11.3 360 8.3 103730 70
2001-12-07 13:33 51°11.014 2°36.763 11.7 4 8.3 103730 70
2001-12-07 13:34 51°10.782 2°36.69 11.6 355 8.3 103720 70
2001-12-07 13:35 51°10.558 2°36.618 11.6 7 8.3 103720 69
2001-12-07 13:36 51°10.328 2°36.544 12.6 2 8.3 103730 69
2001-12-07 13:37 51°10.098 2°36.467 12.6 358 8.2 103720 68
2001-12-07 13:38 51°9.873 2°36.385 12.6 2 8.2 103720 67
2001-12-07 13:39 51°9.647 2°36.302 11.9 3 8.2 103720 67
2001-12-07 13:40 51°9.435 2°36.231 9.8 360 8.2 103720 68
2001-12-07 13:41 51°9.329 2°36.258 6.3 353 8.2 103740 68
2001-12-07 13:42 51°9.307 2°36.271 4.1 318 8.2 103750 67
2001-12-07 13:43 51°9.303 2°36.273 3.7 300 8.1 103740 68
2001-12-07 13:44 51°9.303 2°36.272 3.3 291 8 103750 68
2001-12-07 13:45 51°9.305 2°36.267 2.3 279 7.9 103740 69
2001-12-07 13:46 51°9.306 2°36.262 3 286 7.9 103750 68
2001-12-07 13:47 51°9.309 2°36.255 2.2 276 7.8 103740 69
2001-12-07 13:48 51°9.313 2°36.249 2.6 277 7.8 103740 69
2001-12-07 13:49 51°9.316 2°36.242 3.6 261 7.9 103750 71
2001-12-07 13:50 51°9.32 2°36.234 3.6 256 7.9 103740 70
2001-12-07 13:51 51°9.324 2°36.227 2.5 248 8 103750 70
2001-12-07 13:52 51°9.328 2°36.22 3 252 8 103750 70
2001-12-07 13:53 51°9.332 2°36.213 2.9 228 8.1 103750 72
2001-12-07 13:54 51°9.337 2°36.207 2.8 252 8.1 103750 69
2001-12-07 13:55 51°9.342 2°36.201 2.9 252 8.1 103750 70
2001-12-07 13:56 51°9.36 2°36.212 2.8 260 8.2 103740 71
2001-12-07 13:57 51°9.39 2°36.242 2.1 267 8.2 103750 71
2001-12-07 13:58 51°9.423 2°36.278 2.3 275 8.1 103740 72
2001-12-07 13:59 51°9.451 2°36.309 3.1 290 8 103740 72
2001-12-07 14:00 51°9.474 2°36.336 3 289 8 103750 72
2001-12-07 14:01 51°9.494 2°36.36 2.7 289 8 103750 72
2001-12-07 14:02 51°9.512 2°36.381 2.7 291 7.9 103750 72
2001-12-07 14:03 51°9.529 2°36.4 3.1 296 7.9 103750 72
2001-12-07 14:04 51°9.545 2°36.42 3.8 288 7.9 103750 75
2001-12-07 14:05 51°9.56 2°36.44 2.9 292 7.9 103750 71
2001-12-07 14:06 51°9.576 2°36.462 3.1 296 7.9 103750 73
2001-12-07 14:07 51°9.599 2°36.51 6.1 326 7.9 103750 71
2001-12-07 14:08 51°9.669 2°36.768 11.3 336 7.8 103740 71
2001-12-07 14:09 51°9.738 2°37.1 10 328 7.8 103740 68
2001-12-07 14:10 51°9.807 2°37.422 10.3 335 8 103730 70
2001-12-07 14:11 51°9.88 2°37.753 10.5 336 7.9 103740 68
2001-12-07 14:12 51°9.951 2°38.08 10.7 333 8 103730 68
2001-12-07 14:13 51°10.025 2°38.424 10.1 330 8 103730 69
2001-12-07 14:14 51°10.098 2°38.76 9.6 337 8 103730 70
2001-12-07 14:15 51°10.17 2°39.087 11.2 345 8 103730 70
2001-12-07 14:16 51°10.245 2°39.428 10.8 345 8 103740 70
2001-12-07 14:17 51°10.318 2°39.764 10.8 336 8 103730 70
2001-12-07 14:18 51°10.388 2°40.095 10.6 341 8 103740 71
2001-12-07 14:19 51°10.462 2°40.437 11.2 340 8 103730 70
2001-12-07 14:20 51°10.534 2°40.768 11.8 340 8 103730 71
2001-12-07 14:21 51°10.611 2°41.11 10.8 332 8 103730 70
2001-12-07 14:22 51°10.682 2°41.44 10.9 335 8 103730 70
2001-12-07 14:23 51°10.755 2°41.779 12.4 335 8.1 103730 70
2001-12-07 14:24 51°10.832 2°42.13 11.3 331 8 103730 70
2001-12-07 14:25 51°10.906 2°42.466 10.6 335 8 103740 70
2001-12-07 14:26 51°10.981 2°42.807 10.5 332 8 103740 72
2001-12-07 14:27 51°11.053 2°43.136 10.5 338 8 103740 72
2001-12-07 14:28 51°11.128 2°43.479 11.1 340 8 103740 72
2001-12-07 14:29 51°11.203 2°43.813 11.7 330 8 103740 72
2001-12-07 14:30 51°11.274 2°44.144 10.9 336 7.9 103740 71
2001-12-07 14:31 51°11.348 2°44.482 12.1 336 8 103740 71
2001-12-07 14:32 51°11.422 2°44.818 10.7 335 8 103740 72
2001-12-07 14:33 51°11.498 2°45.159 10.2 340 7.9 103740 71
2001-12-07 14:34 51°11.57 2°45.489 10.6 337 7.9 103740 71
2001-12-07 14:35 51°11.649 2°45.829 10.3 334 7.9 103740 70
2001-12-07 14:36 51°11.737 2°46.158 11.9 341 7.9 103740 72
2001-12-07 14:37 51°11.822 2°46.483 10.9 340 7.9 103740 72
2001-12-07 14:38 51°11.915 2°46.818 11.2 332 7.9 103740 73
2001-12-07 14:39 51°12.009 2°47.144 11 336 7.8 103740 72
2001-12-07 14:40 51°12.102 2°47.465 11 336 8 103750 71
2001-12-07 14:41 51°12.205 2°47.787 10.7 330 7.8 103740 71
2001-12-07 14:42 51°12.314 2°48.116 10.3 335 7.8 103750 73
2001-12-07 14:43 51°12.419 2°48.44 10.7 336 7.8 103740 73
2001-12-07 14:44 51°12.523 2°48.755 10.1 334 7.8 103740 72
2001-12-07 14:45 51°12.629 2°49.074 11.4 328 7.8 103740 72
2001-12-07 14:46 51°12.733 2°49.395 11.3 329 7.8 103740 72
2001-12-07 14:47 51°12.838 2°49.713 10.1 334 7.8 103750 72
2001-12-07 14:48 51°12.942 2°50.032 10.7 336 7.8 103750 72
2001-12-07 14:49 51°13.047 2°50.352 9.4 332 7.8 103750 71
2001-12-07 14:50 51°13.153 2°50.675 9.2 331 7.8 103750 72
2001-12-07 14:51 51°13.259 2°50.998 9.1 336 7.8 103750 72
2001-12-07 14:52 51°13.363 2°51.321 10.4 341 7.8 103750 72
2001-12-07 14:53 51°13.47 2°51.648 10.4 342 7.9 103750 72
2001-12-07 14:54 51°13.577 2°51.972 10.3 337 7.9 103760 71
2001-12-07 14:55 51°13.681 2°52.291 12.1 342 7.9 103750 71
2001-12-07 14:56 51°13.785 2°52.616 13 344 8 103740 72
2001-12-07 14:57 51°13.892 2°52.945 10.9 340 7.9 103740 72
2001-12-07 14:58 51°13.997 2°53.271 11.1 340 7.9 103750 73
2001-12-07 14:59 51°14.101 2°53.591 12.3 344 7.9 103750 73
2001-12-07 15:00 51°14.21 2°53.924 11.3 335 7.8 103740 73
2001-12-07 15:01 51°14.301 2°54.256 11.7 343 7.8 103750 73
2001-12-07 15:02 51°14.355 2°54.614 11.7 342 7.8 103750 73
2001-12-07 15:03 51°14.363 2°54.981 11.6 349 7.8 103740 74
2001-12-07 15:04 51°14.268 2°55.247 8.1 352 7.7 103750 75
2001-12-07 15:05 51°14.156 2°55.389 6 359 7.7 103750 74
2001-12-07 15:06 51°14.051 2°55.469 6 13 7.6 103760 74
2001-12-07 15:07 51°13.958 2°55.538 5.7 5 7.6 103760 74
2001-12-07 15:08 51°13.844 2°55.621 5.5 355 7.6 103760 75
2001-12-07 15:09 51°13.758 2°55.707 5 8 7.6 103760 75
2001-12-07 15:10 51°13.719 2°55.785 2.7 337 7.6 103760 75
2001-12-07 15:11 51°13.698 2°55.851 3.8 358 7.5 103760 75